El Zurdo, Argentina
Current Conditions -  °F | °C
As of 7:00 PM on Monday 22 Dec 2014 (Local Time) from SCCI Reporting Station
Few Clouds Few Clouds  
Wind Chill: 54°   Ceiling: Unl
Heat Index: 54°   Visibility: 6mi
Dew Point: 37°   Wind: 43mph
Humidity: 54%   Direction: 240°WSW
Pressure: 29.26"   Gusts: 62mph
Location:  51.99°S, 71.22°W
Report Text: SCCI 222200Z 24037G54KT 9999 FEW030 12/03 Q0991 NOSIG
Loading
Personal Weather Stations






























Interactive Weather Map New forecast layout! Learn more

10-Day Weather Forecast

Advertisements
Track Severe Weather on mobile